createdAt,value
2023-06-17T00:02:00.412Z,62.66
2023-06-17T00:04:27.550Z,63.65
2023-06-17T00:06:54.637Z,63.86
2023-06-17T00:09:21.522Z,64.30
2023-06-17T00:11:48.909Z,64.34
2023-06-17T00:14:17.590Z,64.62
2023-06-17T00:16:45.018Z,65.43
2023-06-17T00:19:16.857Z,65.31
2023-06-17T00:21:45.202Z,65.43
2023-06-17T00:24:13.441Z,65.64
2023-06-17T00:26:40.425Z,65.74
2023-06-17T00:29:08.130Z,65.53
2023-06-17T00:31:35.462Z,65.76
2023-06-17T00:34:02.383Z,65.46
2023-06-17T00:36:29.265Z,65.68
2023-06-17T00:38:56.213Z,65.40
2023-06-17T00:41:23.323Z,65.70
2023-06-17T00:43:50.472Z,65.77
2023-06-17T00:46:38.791Z,65.76
2023-06-17T00:49:12.932Z,65.43
2023-06-17T00:51:40.057Z,65.36
2023-06-17T00:54:11.006Z,65.18
2023-06-17T00:56:38.963Z,65.47
2023-06-17T00:59:06.524Z,65.29
2023-06-17T01:01:36.469Z,65.21
2023-06-17T01:04:05.838Z,64.85
2023-06-17T01:06:47.123Z,64.95
2023-06-17T01:09:21.523Z,65.27
2023-06-17T01:11:51.769Z,65.70
2023-06-17T01:14:20.087Z,65.65
2023-06-17T01:16:51.956Z,65.90
2023-06-17T01:19:25.892Z,66.21
2023-06-17T01:21:54.604Z,66.15
2023-06-17T01:24:31.539Z,66.18
2023-06-17T01:27:01.024Z,65.75
2023-06-17T01:29:30.495Z,65.77
2023-06-17T01:31:59.013Z,66.15
2023-06-17T01:34:57.405Z,66.33
2023-06-17T01:37:56.172Z,65.59
2023-06-17T01:40:24.656Z,65.59
2023-06-17T01:42:54.117Z,66.04
2023-06-17T01:45:21.825Z,65.83
2023-06-17T01:47:49.060Z,66.19
2023-06-17T01:50:20.905Z,66.36
2023-06-17T01:52:48.168Z,66.56
2023-06-17T01:55:18.412Z,67.13
2023-06-17T01:57:45.384Z,67.46
2023-06-17T02:00:14.270Z,67.51
2023-06-17T02:02:41.501Z,67.43
2023-06-17T02:05:09.976Z,67.50
2023-06-17T02:07:37.509Z,67.62
2023-06-17T02:10:05.182Z,66.91
2023-06-17T02:12:33.421Z,66.98
2023-06-17T02:15:01.006Z,67.27
2023-06-17T02:17:30.571Z,66.73
2023-06-17T02:19:57.503Z,66.94
2023-06-17T02:22:24.441Z,67.45
2023-06-17T02:24:51.392Z,67.38
2023-06-17T02:27:18.308Z,67.76
2023-06-17T02:29:45.937Z,67.63
2023-06-17T02:32:13.272Z,66.86
2023-06-17T02:34:43.377Z,66.35
2023-06-17T02:37:10.969Z,66.10
2023-06-17T02:39:37.920Z,66.21
2023-06-17T02:42:05.389Z,66.98
2023-06-17T02:44:32.339Z,67.77
2023-06-17T02:46:59.312Z,68.11
2023-06-17T02:49:26.656Z,67.86
2023-06-17T02:51:53.639Z,67.60
2023-06-17T02:54:20.844Z,67.19
2023-06-17T02:56:47.734Z,67.31
2023-06-17T02:59:16.320Z,67.56
2023-06-17T03:01:44.284Z,67.13
2023-06-17T03:04:12.005Z,66.44
2023-06-17T03:06:42.221Z,66.86
2023-06-17T03:09:09.686Z,66.73
2023-06-17T03:11:40.707Z,66.87
2023-06-17T03:14:08.833Z,67.20
2023-06-17T03:16:35.891Z,67.14
2023-06-17T03:19:03.252Z,67.22
2023-06-17T03:21:31.817Z,66.68
2023-06-17T03:23:59.812Z,66.75
2023-06-17T03:26:27.163Z,66.64
2023-06-17T03:28:54.399Z,66.85
2023-06-17T03:31:22.746Z,66.66
2023-06-17T03:33:53.026Z,67.09
2023-06-17T03:36:20.792Z,67.24
2023-06-17T03:38:47.634Z,66.98
2023-06-17T03:41:14.521Z,67.32
2023-06-17T03:43:41.640Z,67.02
2023-06-17T03:46:08.725Z,66.22
2023-06-17T03:48:35.623Z,66.52
2023-06-17T03:51:03.622Z,66.69
2023-06-17T03:53:31.138Z,67.10
2023-06-17T03:55:58.018Z,66.45
2023-06-17T03:58:25.700Z,66.04
2023-06-17T04:00:53.057Z,66.13
2023-06-17T04:03:20.458Z,65.84
2023-06-17T04:05:47.437Z,65.87
2023-06-17T04:08:14.411Z,65.63
2023-06-17T04:10:41.339Z,65.66
2023-06-17T04:13:08.341Z,65.82
2023-06-17T04:15:35.248Z,65.94
2023-06-17T04:18:03.696Z,65.57
2023-06-17T04:20:30.764Z,65.99
2023-06-17T04:22:57.662Z,65.62
2023-06-17T04:25:24.579Z,66.15
2023-06-17T04:27:54.481Z,66.13
2023-06-17T04:30:21.931Z,66.34
2023-06-17T04:32:51.230Z,65.83
2023-06-17T04:35:19.986Z,66.15
2023-06-17T04:37:54.334Z,66.25
2023-06-17T04:40:23.311Z,65.72
2023-06-17T04:42:52.433Z,65.75
2023-06-17T04:45:19.477Z,66.11
2023-06-17T04:47:46.978Z,66.25
2023-06-17T04:50:18.340Z,65.98
2023-06-17T04:52:48.795Z,66.03
2023-06-17T04:55:15.744Z,66.12
2023-06-17T04:57:43.604Z,65.95
2023-06-17T05:00:11.921Z,66.75
2023-06-17T05:02:41.006Z,67.84
2023-06-17T05:05:08.849Z,67.97
2023-06-17T05:07:36.041Z,67.78
2023-06-17T05:10:03.327Z,66.83
2023-06-17T05:12:30.229Z,67.03
2023-06-17T05:14:57.162Z,66.48
2023-06-17T05:17:24.270Z,66.01
2023-06-17T05:19:51.279Z,65.27
2023-06-17T05:22:18.178Z,64.63
2023-06-17T05:24:45.386Z,64.38
2023-06-17T05:27:12.408Z,63.08
2023-06-17T05:29:40.399Z,62.49
2023-06-17T05:32:07.974Z,63.01
2023-06-17T05:34:35.124Z,62.74
2023-06-17T05:37:02.236Z,61.21
2023-06-17T05:39:29.187Z,60.13
2023-06-17T05:41:56.053Z,58.33
2023-06-17T05:44:23.076Z,57.99
2023-06-17T05:46:50.077Z,56.90
2023-06-17T05:49:17.447Z,56.11
2023-06-17T05:51:44.441Z,54.92
2023-06-17T05:54:11.321Z,54.51
2023-06-17T05:56:38.160Z,54.37
2023-06-17T05:59:05.072Z,53.44
2023-06-17T06:01:32.031Z,53.23
2023-06-17T06:03:59.038Z,52.07
2023-06-17T06:06:25.992Z,50.85
2023-06-17T06:08:52.960Z,50.23
2023-06-17T06:11:19.903Z,49.90
2023-06-17T06:13:47.188Z,49.76
2023-06-17T06:16:14.089Z,48.78
2023-06-17T06:18:41.013Z,49.02
2023-06-17T06:21:07.903Z,49.86
2023-06-17T06:23:36.989Z,48.18
2023-06-17T06:26:03.947Z,49.28
2023-06-17T06:28:30.956Z,49.21
2023-06-17T06:30:57.823Z,48.67
2023-06-17T06:33:24.737Z,48.83
2023-06-17T06:35:51.687Z,48.13
2023-06-17T06:38:18.665Z,47.28
2023-06-17T06:40:45.561Z,47.11
2023-06-17T06:43:12.460Z,46.42
2023-06-17T06:45:39.400Z,45.62
2023-06-17T06:48:06.447Z,45.79
2023-06-17T06:50:34.457Z,43.89
2023-06-17T06:53:01.536Z,43.74
2023-06-17T06:55:29.731Z,42.62
2023-06-17T06:57:56.663Z,43.38
2023-06-17T07:00:23.713Z,42.42
2023-06-17T07:02:50.827Z,42.32
2023-06-17T07:05:17.770Z,41.82
2023-06-17T07:07:45.574Z,41.30
2023-06-17T07:10:12.537Z,40.32
2023-06-17T07:12:39.461Z,40.03
2023-06-17T07:15:07.215Z,39.44
2023-06-17T07:17:34.248Z,40.34
2023-06-17T07:20:01.211Z,39.35
2023-06-17T07:22:28.087Z,39.31
2023-06-17T07:24:55.091Z,38.14
2023-06-17T07:27:21.946Z,36.86
2023-06-17T07:29:48.864Z,36.98
2023-06-17T07:32:15.765Z,37.03
2023-06-17T07:34:42.672Z,37.25
2023-06-17T07:37:09.946Z,36.25
2023-06-17T07:39:36.874Z,36.84
2023-06-17T07:42:04.042Z,36.77
2023-06-17T07:44:32.949Z,37.33
2023-06-17T07:46:59.851Z,37.60
2023-06-17T07:49:26.805Z,36.83
2023-06-17T07:51:53.704Z,36.47
2023-06-17T07:54:20.625Z,35.85
2023-06-17T07:56:47.491Z,35.32
2023-06-17T07:59:14.424Z,34.16
2023-06-17T08:01:41.354Z,34.03
2023-06-17T08:04:08.405Z,33.69
2023-06-17T08:06:36.513Z,33.82
2023-06-17T08:09:04.215Z,34.22
2023-06-17T08:11:31.108Z,34.17
2023-06-17T08:13:58.069Z,34.96
2023-06-17T08:16:25.008Z,33.13
2023-06-17T08:18:52.147Z,32.76
2023-06-17T08:21:18.985Z,32.08
2023-06-17T08:23:46.349Z,32.38
2023-06-17T08:26:13.515Z,32.57
2023-06-17T08:28:40.680Z,31.83
2023-06-17T08:31:07.595Z,31.78
2023-06-17T08:33:34.804Z,31.34
2023-06-17T08:36:01.808Z,33.41
2023-06-17T08:38:28.660Z,30.85
2023-06-17T08:40:55.632Z,31.44
2023-06-17T08:43:23.756Z,29.16
2023-06-17T08:45:51.846Z,31.51
2023-06-17T08:48:19.354Z,31.22
2023-06-17T08:50:48.607Z,31.57
2023-06-17T08:53:16.068Z,31.60
2023-06-17T08:55:43.958Z,31.34
2023-06-17T08:58:11.635Z,29.84
2023-06-17T09:00:38.672Z,30.17
2023-06-17T09:03:08.585Z,30.28
2023-06-17T09:05:36.752Z,30.29
2023-06-17T09:08:04.036Z,28.41
2023-06-17T09:10:42.482Z,29.33
2023-06-17T09:13:09.718Z,28.70
2023-06-17T09:15:41.594Z,29.12
2023-06-17T09:18:11.930Z,29.37
2023-06-17T09:20:38.895Z,28.36
2023-06-17T09:23:05.790Z,28.16
2023-06-17T09:25:36.416Z,28.98
2023-06-17T09:28:15.996Z,29.14
2023-06-17T09:30:44.896Z,28.48
2023-06-17T09:33:22.997Z,29.47
2023-06-17T09:36:05.809Z,28.62
2023-06-17T09:38:33.585Z,28.89
2023-06-17T09:41:00.987Z,28.61
2023-06-17T09:43:29.429Z,26.70
2023-06-17T09:46:01.481Z,25.69
2023-06-17T09:48:33.487Z,27.22
2023-06-17T09:51:01.433Z,27.32
2023-06-17T09:53:30.781Z,26.75
2023-06-17T09:56:00.880Z,27.39
2023-06-17T09:58:32.571Z,26.80
2023-06-17T10:01:07.089Z,25.44
2023-06-17T10:03:35.007Z,25.39
2023-06-17T10:06:10.553Z,26.56
2023-06-17T10:08:40.843Z,28.38
2023-06-17T10:11:07.848Z,27.13
2023-06-17T10:13:38.030Z,26.24
2023-06-17T10:16:12.725Z,24.91
2023-06-17T10:18:42.357Z,26.16
2023-06-17T10:21:12.802Z,27.36
2023-06-17T10:23:42.590Z,28.21
2023-06-17T10:26:12.779Z,28.54
2023-06-17T10:28:54.488Z,30.00
2023-06-17T10:31:27.514Z,28.01
2023-06-17T10:33:56.404Z,29.67
2023-06-17T10:36:25.208Z,26.67
2023-06-17T10:39:05.615Z,28.54
2023-06-17T10:41:41.592Z,27.56
2023-06-17T10:44:36.688Z,26.05
2023-06-17T10:47:16.664Z,27.05
2023-06-17T10:49:43.822Z,28.11
2023-06-17T10:52:15.446Z,25.62
2023-06-17T10:54:55.315Z,25.42
2023-06-17T10:57:36.830Z,25.54
2023-06-17T11:00:13.109Z,25.83
2023-06-17T11:02:40.915Z,25.01
2023-06-17T11:05:09.373Z,24.89
2023-06-17T11:07:37.494Z,24.14
2023-06-17T11:10:05.406Z,24.58
2023-06-17T11:12:33.264Z,24.58
2023-06-17T11:15:01.433Z,25.93
2023-06-17T11:17:28.746Z,23.96
2023-06-17T11:19:56.340Z,23.06
2023-06-17T11:22:24.026Z,24.41
2023-06-17T11:24:50.945Z,25.23
2023-06-17T11:27:18.585Z,26.29
2023-06-17T11:29:46.026Z,23.62
2023-06-17T11:32:13.647Z,23.74
2023-06-17T11:34:42.817Z,24.68
2023-06-17T11:37:12.413Z,22.84
2023-06-17T11:39:40.214Z,23.96
2023-06-17T11:42:09.770Z,23.92
2023-06-17T11:44:37.148Z,23.29
2023-06-17T11:47:09.899Z,23.11
2023-06-17T11:49:41.646Z,23.88
2023-06-17T11:52:10.591Z,23.40
2023-06-17T11:54:49.992Z,23.67
2023-06-17T11:57:22.374Z,24.41
2023-06-17T11:59:51.113Z,25.81
2023-06-17T12:02:18.593Z,25.10
2023-06-17T12:04:47.258Z,26.30
2023-06-17T12:07:14.853Z,24.55
2023-06-17T12:09:55.566Z,24.71
2023-06-17T12:12:34.560Z,25.84
2023-06-17T12:15:14.813Z,24.92
2023-06-17T12:17:53.151Z,23.87
2023-06-17T12:20:22.353Z,23.96
2023-06-17T12:22:51.854Z,25.14
2023-06-17T12:25:19.518Z,24.24
2023-06-17T12:27:47.144Z,23.39
2023-06-17T12:30:14.918Z,22.65
2023-06-17T12:32:42.249Z,23.70
2023-06-17T12:35:12.553Z,24.51
2023-06-17T12:37:43.573Z,23.78
2023-06-17T12:40:11.262Z,23.90
2023-06-17T12:42:38.317Z,23.76
2023-06-17T12:45:07.313Z,22.93
2023-06-17T12:47:35.136Z,22.51
2023-06-17T12:50:02.257Z,23.16
2023-06-17T12:52:29.328Z,22.82
2023-06-17T12:55:00.452Z,21.92
2023-06-17T12:57:28.363Z,23.24
2023-06-17T12:59:55.741Z,22.53
2023-06-17T13:02:23.058Z,23.69
2023-06-17T13:04:50.531Z,23.79
2023-06-17T13:07:17.977Z,22.27
2023-06-17T13:09:44.919Z,22.28
2023-06-17T13:12:12.393Z,23.18
2023-06-17T13:14:39.391Z,23.76
2023-06-17T13:17:07.142Z,22.87
2023-06-17T13:19:34.179Z,23.23
2023-06-17T13:22:01.121Z,21.46
2023-06-17T13:24:28.330Z,23.15
2023-06-17T13:26:55.962Z,24.33
2023-06-17T13:29:24.179Z,22.73
2023-06-17T13:31:51.404Z,22.80
2023-06-17T13:34:19.218Z,22.39
2023-06-17T13:36:47.358Z,22.38
2023-06-17T13:39:15.077Z,21.40
2023-06-17T13:41:42.499Z,22.31
2023-06-17T13:44:09.892Z,23.46
2023-06-17T13:46:37.150Z,24.16
2023-06-17T13:49:04.605Z,23.36
2023-06-17T13:51:32.527Z,23.20
2023-06-17T13:54:01.834Z,23.67
2023-06-17T13:56:29.159Z,23.31
2023-06-17T13:58:56.721Z,22.18
2023-06-17T14:01:24.837Z,24.23
2023-06-17T14:03:52.377Z,23.64
2023-06-17T14:06:20.844Z,23.52
2023-06-17T14:08:48.067Z,21.95
2023-06-17T14:11:15.016Z,22.99
2023-06-17T14:13:43.926Z,22.73
2023-06-17T14:16:12.166Z,23.97
2023-06-17T14:18:39.277Z,22.85
2023-06-17T14:21:06.293Z,22.95
2023-06-17T14:23:33.277Z,22.35
2023-06-17T14:26:01.040Z,21.54
2023-06-17T14:28:27.956Z,24.16
2023-06-17T14:30:54.849Z,23.67
2023-06-17T14:33:21.727Z,23.42
2023-06-17T14:35:48.607Z,22.96
2023-06-17T14:38:15.526Z,23.72
2023-06-17T14:40:42.413Z,23.69
2023-06-17T14:43:09.359Z,23.92
2023-06-17T14:45:36.355Z,23.46
2023-06-17T14:48:04.272Z,21.65
2023-06-17T14:50:31.264Z,22.48
2023-06-17T14:52:58.202Z,23.15
2023-06-17T14:55:25.084Z,22.86
2023-06-17T14:57:52.253Z,23.03
2023-06-17T15:00:20.791Z,22.98
2023-06-17T15:02:56.169Z,22.68
2023-06-17T15:05:25.196Z,23.57
2023-06-17T15:07:53.109Z,23.95
2023-06-17T15:10:20.183Z,23.89
2023-06-17T15:12:47.471Z,23.39
2023-06-17T15:15:14.994Z,23.93
2023-06-17T15:17:42.609Z,23.76
2023-06-17T15:20:10.963Z,22.55
2023-06-17T15:22:39.366Z,23.60
2023-06-17T15:25:08.057Z,24.06
2023-06-17T15:27:35.016Z,24.00
2023-06-17T15:30:02.186Z,24.35
2023-06-17T15:32:29.161Z,24.05
2023-06-17T15:34:56.589Z,23.62
2023-06-17T15:37:23.581Z,24.25
2023-06-17T15:39:50.933Z,23.59
2023-06-17T15:42:17.898Z,24.61
2023-06-17T15:44:44.787Z,24.49
2023-06-17T15:47:11.789Z,24.19
2023-06-17T15:49:38.811Z,23.54
2023-06-17T15:52:06.607Z,24.86
2023-06-17T15:54:33.470Z,23.07
2023-06-17T15:57:02.451Z,23.63
2023-06-17T15:59:30.041Z,23.77
2023-06-17T16:01:57.057Z,23.27
2023-06-17T16:04:41.255Z,24.28
2023-06-17T16:07:13.979Z,23.03
2023-06-17T16:09:45.552Z,23.49
2023-06-17T16:12:13.039Z,23.42
2023-06-17T16:14:40.029Z,22.46
2023-06-17T16:17:09.311Z,22.75
2023-06-17T16:19:38.229Z,23.31
2023-06-17T16:22:10.997Z,24.14
2023-06-17T16:24:39.371Z,24.57
2023-06-17T16:27:06.556Z,24.56
2023-06-17T16:29:33.524Z,25.29
2023-06-17T16:32:00.502Z,25.64
2023-06-17T16:34:27.458Z,25.45
2023-06-17T16:36:54.346Z,26.18
2023-06-17T16:39:21.456Z,26.49
2023-06-17T16:41:48.468Z,26.08
2023-06-17T16:44:15.436Z,25.99
2023-06-17T16:46:42.374Z,26.24
2023-06-17T16:49:09.301Z,26.47
2023-06-17T16:51:36.221Z,27.54
2023-06-17T16:54:06.451Z,26.95
2023-06-17T16:56:33.749Z,27.00
2023-06-17T16:59:02.066Z,27.53
2023-06-17T17:01:29.808Z,27.04
2023-06-17T17:04:01.176Z,26.83
2023-06-17T17:06:28.118Z,27.41
2023-06-17T17:08:55.241Z,27.63
2023-06-17T17:11:22.219Z,27.61
2023-06-17T17:13:50.027Z,28.27
2023-06-17T17:16:18.510Z,27.68
2023-06-17T17:18:45.901Z,27.54
2023-06-17T17:21:13.053Z,27.32
2023-06-17T17:23:44.004Z,27.73
2023-06-17T17:26:13.189Z,27.91
2023-06-17T17:28:43.233Z,28.18
2023-06-17T17:31:10.376Z,28.33
2023-06-17T17:33:37.899Z,27.84
2023-06-17T17:36:05.176Z,28.50
2023-06-17T17:38:32.430Z,29.98
2023-06-17T17:40:59.329Z,29.27
2023-06-17T17:43:27.179Z,29.72
2023-06-17T17:45:56.334Z,30.83
2023-06-17T17:48:23.346Z,30.03
2023-06-17T17:50:51.408Z,30.28
2023-06-17T17:53:18.459Z,30.50
2023-06-17T17:55:45.425Z,31.23
2023-06-17T17:58:12.293Z,30.64
2023-06-17T18:00:39.270Z,30.27
2023-06-17T18:03:06.292Z,30.75
2023-06-17T18:05:33.672Z,30.94
2023-06-17T18:08:00.564Z,31.47
2023-06-17T18:10:27.473Z,31.59
2023-06-17T18:12:54.353Z,32.71
2023-06-17T18:15:21.443Z,32.88
2023-06-17T18:17:48.328Z,33.34
2023-06-17T18:20:15.365Z,33.88
2023-06-17T18:22:42.279Z,33.27
2023-06-17T18:25:09.988Z,34.50
2023-06-17T18:27:38.426Z,35.32
2023-06-17T18:30:06.416Z,35.94
2023-06-17T18:32:33.352Z,36.06
2023-06-17T18:35:00.362Z,35.48
2023-06-17T18:37:27.324Z,35.79
2023-06-17T18:39:54.365Z,36.44
2023-06-17T18:42:23.368Z,35.63
2023-06-17T18:44:50.230Z,36.06
2023-06-17T18:47:17.139Z,36.46
2023-06-17T18:49:43.989Z,36.83
2023-06-17T18:52:10.939Z,36.85
2023-06-17T18:54:37.816Z,37.81
2023-06-17T18:57:05.578Z,38.03
2023-06-17T18:59:32.726Z,38.95
2023-06-17T19:01:59.661Z,39.22
2023-06-17T19:04:26.571Z,39.03
2023-06-17T19:06:53.467Z,39.17
2023-06-17T19:09:20.575Z,38.90
2023-06-17T19:11:47.538Z,38.74
2023-06-17T19:14:14.510Z,39.28
2023-06-17T19:16:42.867Z,39.95
2023-06-17T19:19:09.898Z,40.50
2023-06-17T19:21:36.779Z,41.46
2023-06-17T19:24:04.069Z,41.62
2023-06-17T19:26:31.049Z,40.99
2023-06-17T19:28:57.971Z,40.65
2023-06-17T19:31:25.912Z,40.89
2023-06-17T19:33:53.916Z,41.03
2023-06-17T19:36:20.863Z,41.54
2023-06-17T19:38:47.768Z,42.29
2023-06-17T19:41:14.652Z,42.71
2023-06-17T19:43:41.541Z,42.82
2023-06-17T19:46:09.220Z,43.20
2023-06-17T19:48:36.720Z,43.92
2023-06-17T19:51:03.647Z,43.65
2023-06-17T19:53:31.420Z,44.36
2023-06-17T19:55:58.566Z,44.91
2023-06-17T19:58:25.569Z,45.31
2023-06-17T20:00:52.569Z,45.76
2023-06-17T20:03:19.615Z,45.92
2023-06-17T20:05:47.098Z,45.92
2023-06-17T20:08:14.668Z,46.17
2023-06-17T20:10:42.570Z,46.37
2023-06-17T20:13:09.907Z,46.39
2023-06-17T20:15:38.178Z,46.77
2023-06-17T20:18:05.571Z,46.88
2023-06-17T20:20:33.509Z,47.49
2023-06-17T20:23:00.580Z,48.05
2023-06-17T20:25:27.535Z,47.68
2023-06-17T20:27:54.402Z,47.93
2023-06-17T20:30:21.919Z,47.83
2023-06-17T20:32:49.085Z,47.36
2023-06-17T20:35:16.105Z,47.75
2023-06-17T20:37:44.592Z,48.50
2023-06-17T20:40:12.215Z,48.73
2023-06-17T20:42:39.195Z,48.04
2023-06-17T20:45:08.616Z,48.39
2023-06-17T20:47:36.299Z,48.23
2023-06-17T20:50:03.727Z,48.42
2023-06-17T20:52:30.795Z,48.12
2023-06-17T20:54:57.750Z,48.34
2023-06-17T20:57:24.641Z,48.65
2023-06-17T20:59:53.470Z,48.89
2023-06-17T21:02:20.688Z,49.06
2023-06-17T21:04:47.789Z,49.32
2023-06-17T21:07:14.725Z,49.69
2023-06-17T21:09:42.388Z,49.85
2023-06-17T21:12:09.586Z,49.88
2023-06-17T21:14:36.719Z,50.42
2023-06-17T21:17:03.777Z,50.50
2023-06-17T21:19:30.977Z,50.76
2023-06-17T21:21:57.876Z,50.42
2023-06-17T21:24:24.835Z,50.49
2023-06-17T21:26:51.743Z,49.68
2023-06-17T21:29:18.663Z,48.47
2023-06-17T21:31:45.631Z,47.88
2023-06-17T21:34:12.723Z,47.55
2023-06-17T21:36:40.448Z,47.00
2023-06-17T21:39:07.381Z,47.05
2023-06-17T21:41:34.272Z,46.26
2023-06-17T21:44:01.188Z,45.74
2023-06-17T21:46:31.032Z,45.77
2023-06-17T21:48:58.344Z,45.12
2023-06-17T21:51:25.316Z,45.38
2023-06-17T21:53:52.266Z,47.80
2023-06-17T21:56:19.156Z,48.38
2023-06-17T21:58:46.390Z,50.20
2023-06-17T22:01:13.344Z,51.70
2023-06-17T22:03:41.695Z,51.43
2023-06-17T22:06:09.056Z,51.17
2023-06-17T22:08:42.880Z,51.60
2023-06-17T22:11:12.142Z,52.59
2023-06-17T22:13:39.626Z,52.90
2023-06-17T22:16:06.870Z,53.01
2023-06-17T22:18:34.005Z,53.18
2023-06-17T22:21:01.054Z,53.31
2023-06-17T22:23:27.956Z,52.73
2023-06-17T22:25:56.615Z,52.51
2023-06-17T22:28:23.727Z,52.71
2023-06-17T22:30:50.929Z,53.25
2023-06-17T22:33:17.856Z,52.99
2023-06-17T22:35:44.725Z,53.31
2023-06-17T22:38:13.856Z,54.10
2023-06-17T22:40:40.808Z,53.63
2023-06-17T22:43:07.865Z,53.24
2023-06-17T22:45:34.888Z,54.55
2023-06-17T22:48:03.438Z,54.53
2023-06-17T22:50:30.878Z,54.38
2023-06-17T22:52:57.732Z,53.72
2023-06-17T22:55:24.619Z,54.29
2023-06-17T22:57:51.766Z,54.14
2023-06-17T23:00:19.143Z,54.26
2023-06-17T23:02:46.462Z,53.82
2023-06-17T23:05:13.478Z,53.69
2023-06-17T23:07:40.391Z,53.82
2023-06-17T23:10:07.940Z,54.49
2023-06-17T23:12:34.874Z,54.50
2023-06-17T23:15:01.965Z,54.98
2023-06-17T23:17:28.992Z,55.62
2023-06-17T23:20:00.455Z,56.29
2023-06-17T23:22:28.174Z,56.03
2023-06-17T23:24:56.177Z,55.79
2023-06-17T23:27:27.880Z,55.59
2023-06-17T23:29:56.051Z,55.70
2023-06-17T23:32:24.174Z,56.18
2023-06-17T23:34:54.734Z,56.52
2023-06-17T23:37:21.908Z,56.55
2023-06-17T23:39:48.986Z,56.84
2023-06-17T23:42:15.911Z,56.81
2023-06-17T23:44:43.350Z,57.37
2023-06-17T23:47:11.276Z,57.92
2023-06-17T23:49:40.811Z,57.45
2023-06-17T23:52:11.646Z,57.90
2023-06-17T23:54:38.753Z,57.75
2023-06-17T23:57:06.120Z,58.02
2023-06-17T23:59:33.404Z,57.15
